Time;durP1;ratioP1;P1;durP2;ratioP2;P2;SDS_P1;SDS_P2;PMS_P1;PMS_P2;Temp;Humidity;BMP_temperature;BMP_pressure;BME280_temperature;BME280_humidity;BME280_pressure;Samples;Min_cycle;Max_cycle;Signal;HPM_P1;HPM_P2
2023/05/05 00:00:52;;;;;;;15.97;6.50;;;15.50;99.90;;;;;;4969940;28;20459;-55
2023/05/05 00:03:19;;;;;;;14.80;7.50;;;15.60;99.90;;;;;;4970841;28;20483;-55
2023/05/05 00:05:45;;;;;;;13.20;6.33;;;15.70;99.90;;;;;;4969815;28;20397;-55
2023/05/05 00:08:11;;;;;;;13.93;6.57;;;15.80;99.90;;;;;;4971336;28;20423;-55
2023/05/05 00:10:36;;;;;;;15.47;7.10;;;15.90;99.90;;;;;;4970058;28;20409;-55
2023/05/05 00:13:03;;;;;;;14.15;7.07;;;15.80;99.90;;;;;;4970075;28;20869;-55
2023/05/05 00:15:28;;;;;;;12.52;6.50;;;15.80;99.90;;;;;;4970355;28;20404;-55
2023/05/05 00:17:54;;;;;;;14.20;6.50;;;15.80;99.90;;;;;;4970151;28;20466;-55
2023/05/05 00:20:21;;;;;;;14.70;6.90;;;15.90;99.90;;;;;;4970913;28;20423;-55
2023/05/05 00:22:47;;;;;;;13.03;7.20;;;16.00;99.90;;;;;;4969719;28;20420;-55
2023/05/05 00:25:13;;;;;;;15.23;7.00;;;16.10;99.90;;;;;;4975880;28;20384;-55
2023/05/05 00:27:38;;;;;;;14.60;7.60;;;16.00;99.90;;;;;;4976577;28;20435;-55
2023/05/05 00:30:05;;;;;;;13.10;7.03;;;16.10;99.90;;;;;;4977345;28;20423;-55
2023/05/05 00:32:30;;;;;;;15.60;7.10;;;16.00;99.90;;;;;;4977016;28;20402;-55
2023/05/05 00:34:56;;;;;;;15.02;7.40;;;16.00;99.90;;;;;;4975993;28;20404;-55
2023/05/05 00:37:22;;;;;;;12.75;6.78;;;16.00;99.90;;;;;;4976932;28;20754;-55
2023/05/05 00:39:47;;;;;;;14.87;7.30;;;15.90;99.90;;;;;;4976163;28;20376;-55
2023/05/05 00:42:13;;;;;;;13.60;6.63;;;15.90;1.00;;;;;;4976853;28;20435;-55
2023/05/05 00:44:40;;;;;;;13.13;6.40;;;15.90;1.00;;;;;;4975827;28;20392;-55
2023/05/05 00:47:07;;;;;;;14.33;7.20;;;15.90;99.90;;;;;;4976729;28;20400;-55
2023/05/05 00:49:34;;;;;;;13.25;6.85;;;15.80;99.90;;;;;;4959212;28;20888;-55
2023/05/05 00:52:00;;;;;;;15.25;7.00;;;15.80;99.90;;;;;;4976666;28;20444;-55
2023/05/05 00:54:26;;;;;;;13.98;6.90;;;15.80;1.00;;;;;;4976911;28;20402;-55
2023/05/05 00:56:52;;;;;;;14.07;7.47;;;15.90;1.00;;;;;;4975747;28;21195;-55
2023/05/05 00:59:18;;;;;;;12.13;6.40;;;15.80;1.00;;;;;;4976515;28;20459;-55
2023/05/05 01:01:45;;;;;;;13.25;7.00;;;15.80;1.00;;;;;;4975713;28;20506;-55
2023/05/05 01:04:10;;;;;;;14.20;6.38;;;15.80;1.00;;;;;;4976250;28;20404;-55
2023/05/05 01:07:05;;;;;;;14.73;6.82;;;15.80;1.00;;;;;;4975992;28;20418;-55
2023/05/05 01:09:45;;;;;;;13.15;6.70;;;15.80;99.90;;;;;;4957613;28;20848;-55
2023/05/05 01:12:14;;;;;;;12.68;6.43;;;15.90;1.00;;;;;;4968914;28;20439;-55
2023/05/05 01:14:49;;;;;;;13.23;7.40;;;15.90;1.00;;;;;;4975847;28;20388;-55
2023/05/05 01:17:20;;;;;;;12.88;7.05;;;15.90;1.00;;;;;;4976516;28;20848;-55
2023/05/05 01:20:01;;;;;;;14.20;7.10;;;15.90;1.00;;;;;;4975537;28;20432;-55
2023/05/05 01:22:41;;;;;;;13.00;6.60;;;15.90;1.00;;;;;;4976560;28;20412;-55
2023/05/05 01:25:37;;;;;;;14.80;7.50;;;15.80;1.00;;;;;;4976533;28;20395;-55
2023/05/05 01:28:18;;;;;;;11.53;6.40;;;15.90;1.00;;;;;;4976206;28;20408;-55
2023/05/05 01:30:55;;;;;;;16.17;7.85;;;15.90;1.00;;;;;;4975424;28;20432;-55
2023/05/05 01:33:26;;;;;;;14.52;7.05;;;15.80;1.00;;;;;;4976110;28;20470;-54
2023/05/05 01:35:56;;;;;;;12.68;6.78;;;15.50;1.00;;;;;;4973358;28;20404;-55
2023/05/05 01:38:29;;;;;;;13.70;6.37;;;15.50;1.00;;;;;;4973608;28;20412;-55
2023/05/05 01:41:09;;;;;;;13.60;6.50;;;15.50;1.00;;;;;;4973034;28;20439;-54
2023/05/05 01:43:37;;;;;;;14.30;6.80;;;15.40;1.00;;;;;;4973228;28;20483;-55
2023/05/05 01:46:03;;;;;;;12.93;6.90;;;15.40;1.00;;;;;;4973156;28;20809;-55
2023/05/05 01:48:30;;;;;;;13.50;6.40;;;15.40;1.00;;;;;;4973210;28;20467;-55
2023/05/05 01:50:57;;;;;;;14.00;7.10;;;15.40;1.00;;;;;;4972587;28;20400;-55
2023/05/05 01:53:25;;;;;;;13.48;6.90;;;15.50;1.00;;;;;;4973457;28;20388;-55
2023/05/05 01:55:51;;;;;;;13.55;6.90;;;15.50;1.00;;;;;;4972403;28;20396;-55
2023/05/05 01:58:19;;;;;;;11.80;6.10;;;15.50;1.00;;;;;;4973182;28;20432;-55
2023/05/05 02:00:45;;;;;;;13.07;7.00;;;15.50;1.00;;;;;;4972049;28;20431;-55
2023/05/05 02:03:13;;;;;;;13.23;6.80;;;15.40;1.00;;;;;;4973003;28;20929;-55
2023/05/05 02:05:40;;;;;;;13.77;7.22;;;15.50;1.00;;;;;;4972174;28;20425;-55
2023/05/05 02:08:08;;;;;;;15.02;7.70;;;15.50;1.00;;;;;;4973131;28;20427;-55
2023/05/05 02:10:36;;;;;;;12.20;7.00;;;15.60;1.00;;;;;;4972879;28;20475;-55
2023/05/05 02:13:03;;;;;;;13.90;6.90;;;15.40;1.00;;;;;;4973042;28;20877;-55
2023/05/05 02:15:30;;;;;;;14.30;7.37;;;15.40;1.00;;;;;;4972378;28;20407;-55
2023/05/05 02:17:57;;;;;;;13.80;6.30;;;15.40;1.00;;;;;;4971637;28;21013;-55
2023/05/05 02:20:24;;;;;;;14.75;7.55;;;15.30;1.00;;;;;;4972370;28;20456;-55
2023/05/05 02:22:49;;;;;;;13.95;6.82;;;15.20;1.00;;;;;;4971699;28;20439;-55
2023/05/05 02:25:18;;;;;;;12.85;6.80;;;15.20;1.00;;;;;;4972787;28;20821;-55
2023/05/05 02:27:46;;;;;;;12.35;6.47;;;15.20;1.00;;;;;;4972326;28;20440;-55
2023/05/05 02:30:14;;;;;;;12.07;6.40;;;15.20;1.00;;;;;;4972623;28;20933;-55
2023/05/05 02:32:47;;;;;;;13.57;6.93;;;15.30;1.00;;;;;;4970913;28;20766;-55
2023/05/05 02:35:21;;;;;;;11.93;6.35;;;15.20;1.00;;;;;;4954900;28;20411;-55
2023/05/05 02:37:54;;;;;;;12.37;6.37;;;15.10;1.00;;;;;;4971416;28;20407;-55
2023/05/05 02:40:23;;;;;;;15.02;7.05;;;15.10;1.00;;;;;;4972268;28;20467;-55
2023/05/05 02:42:53;;;;;;;12.90;6.40;;;15.00;1.00;;;;;;4971573;28;20400;-55
2023/05/05 02:45:21;;;;;;;13.25;6.60;;;14.90;1.00;;;;;;4972719;28;20388;-55
2023/05/05 02:47:47;;;;;;;11.77;6.03;;;14.80;53.30;;;;;;4971175;28;20886;-55
2023/05/05 02:50:14;;;;;;;10.90;6.05;;;14.80;99.90;;;;;;4972092;28;20470;-55
2023/05/05 02:52:40;;;;;;;12.40;6.07;;;14.70;99.90;;;;;;4971078;28;20396;-55
2023/05/05 02:55:06;;;;;;;14.45;6.13;;;14.70;99.90;;;;;;4972148;28;20937;-55
2023/05/05 02:57:48;;;;;;;10.60;5.95;;;14.60;99.90;;;;;;4971744;28;20551;-55
2023/05/05 03:00:30;;;;;;;11.57;6.20;;;14.60;99.90;;;;;;4971775;28;20463;-55
2023/05/05 03:03:16;;;;;;;11.52;5.63;;;14.70;99.90;;;;;;4971011;28;20392;-55
2023/05/05 03:06:04;;;;;;;13.30;6.47;;;14.60;99.90;;;;;;4970731;28;20399;-55
2023/05/05 03:08:47;;;;;;;11.63;6.00;;;14.60;99.90;;;;;;4972047;28;20397;-54
2023/05/05 03:11:23;;;;;;;12.80;6.25;;;14.70;99.90;;;;;;4971517;28;20400;-55
2023/05/05 03:13:53;;;;;;;12.30;6.35;;;14.70;99.90;;;;;;4971366;28;20395;-56
2023/05/05 03:16:21;;;;;;;13.80;6.40;;;14.70;99.90;;;;;;4971944;28;20388;-57
2023/05/05 03:18:49;;;;;;;11.82;5.85;;;14.70;99.90;;;;;;4971507;28;20475;-56
2023/05/05 03:21:15;;;;;;;11.40;5.75;;;14.70;99.90;;;;;;4971031;28;20424;-57
2023/05/05 03:23:41;;;;;;;11.17;5.90;;;14.70;1.00;;;;;;4970573;28;20807;-57
2023/05/05 03:26:07;;;;;;;11.32;6.00;;;14.70;1.00;;;;;;4971697;28;20420;-55
2023/05/05 03:28:32;;;;;;;11.30;6.10;;;14.70;1.00;;;;;;4971251;28;20754;-55
2023/05/05 03:30:58;;;;;;;12.67;6.10;;;14.80;1.00;;;;;;4970483;28;20408;-55
2023/05/05 03:33:23;;;;;;;11.65;5.80;;;14.80;1.00;;;;;;4971819;28;20392;-55
2023/05/05 03:35:49;;;;;;;12.50;5.95;;;14.90;1.00;;;;;;4970626;28;20893;-55
2023/05/05 03:38:15;;;;;;;12.80;6.13;;;14.80;1.00;;;;;;4971527;28;20396;-54
2023/05/05 03:40:40;;;;;;;14.65;6.40;;;14.60;1.00;;;;;;4970441;28;20863;-54
2023/05/05 03:43:06;;;;;;;11.20;5.70;;;14.60;1.00;;;;;;4970756;28;20411;-55
2023/05/05 03:45:32;;;;;;;11.35;5.82;;;14.60;1.00;;;;;;4970950;28;20419;-54
2023/05/05 03:47:58;;;;;;;12.90;6.40;;;14.70;1.00;;;;;;4970597;28;20408;-55
2023/05/05 03:50:23;;;;;;;12.40;6.60;;;14.60;1.00;;;;;;4970561;28;20412;-55
2023/05/05 03:52:49;;;;;;;11.55;5.75;;;14.60;1.00;;;;;;4970237;28;20417;-55
2023/05/05 03:55:15;;;;;;;10.73;5.20;;;14.80;1.00;;;;;;4971336;28;20411;-55
2023/05/05 03:57:40;;;;;;;11.03;6.07;;;14.80;1.00;;;;;;4969836;28;20401;-55
2023/05/05 04:00:09;;;;;;;10.70;5.50;;;14.80;1.00;;;;;;4969827;28;20867;-55
2023/05/05 04:02:35;;;;;;;12.68;6.25;;;14.80;1.00;;;;;;4967470;28;20487;-55
2023/05/05 04:05:01;;;;;;;12.50;5.63;;;14.40;1.00;;;;;;4970324;28;20491;-54
2023/05/05 04:07:26;;;;;;;10.07;5.40;;;14.80;1.00;;;;;;4966760;28;20417;-55
2023/05/05 04:09:52;;;;;;;12.38;5.57;;;14.80;1.00;;;;;;4969803;28;20487;-55
2023/05/05 04:12:17;;;;;;;11.20;5.77;;;14.60;92.20;;;;;;4969526;28;20401;-55
2023/05/05 04:14:43;;;;;;;10.60;5.17;;;14.80;99.90;;;;;;4969507;28;20395;-55
2023/05/05 04:17:08;;;;;;;11.95;5.50;;;14.80;99.90;;;;;;4970388;28;20403;-54
2023/05/05 04:19:34;;;;;;;11.43;5.13;;;14.90;99.90;;;;;;4970611;28;20439;-54
2023/05/05 04:22:00;;;;;;;9.60;4.60;;;15.10;99.90;;;;;;4969810;28;20424;-55
2023/05/05 04:24:25;;;;;;;9.57;5.03;;;15.30;99.90;;;;;;4970124;28;20751;-55
2023/05/05 04:26:52;;;;;;;9.98;5.00;;;15.40;1.00;;;;;;4967564;28;20518;-55
2023/05/05 04:29:17;;;;;;;12.20;5.35;;;15.50;1.00;;;;;;4970549;28;20478;-55
2023/05/05 04:31:43;;;;;;;11.35;5.60;;;15.60;1.00;;;;;;4969202;28;20922;-55
2023/05/05 04:34:09;;;;;;;11.00;5.63;;;15.80;1.00;;;;;;4964780;28;20428;-55
2023/05/05 04:36:35;;;;;;;10.73;5.75;;;15.90;1.00;;;;;;4963982;28;20409;-55
2023/05/05 04:39:01;;;;;;;10.80;5.40;;;15.90;1.00;;;;;;4970283;28;20447;-55
2023/05/05 04:41:26;;;;;;;11.50;5.10;;;15.90;99.90;;;;;;4969758;28;20484;-55
2023/05/05 04:43:52;;;;;;;11.40;5.50;;;16.00;99.90;;;;;;4968882;28;20491;-55
2023/05/05 04:46:18;;;;;;;11.68;5.13;;;16.10;99.90;;;;;;4970562;28;20874;-55
2023/05/05 04:48:44;;;;;;;10.13;5.77;;;16.20;99.90;;;;;;4969110;28;20411;-55
2023/05/05 04:51:09;;;;;;;10.70;5.27;;;16.40;99.90;;;;;;4969895;28;20408;-55
2023/05/05 04:53:35;;;;;;;9.18;4.78;;;16.30;99.90;;;;;;4969525;28;20438;-54
2023/05/05 04:56:01;;;;;;;13.48;4.97;;;16.40;99.90;;;;;;4969778;28;20404;-55
2023/05/05 04:58:27;;;;;;;10.13;4.93;;;16.40;99.90;;;;;;4967175;28;20447;-55
2023/05/05 05:00:53;;;;;;;10.10;4.90;;;16.30;99.90;;;;;;4968849;28;20416;-55
2023/05/05 05:03:18;;;;;;;10.52;5.10;;;16.50;99.90;;;;;;4969935;28;20479;-55
2023/05/05 05:05:44;;;;;;;9.75;4.70;;;16.60;99.90;;;;;;4969498;28;20884;-55
2023/05/05 05:08:10;;;;;;;9.03;4.40;;;16.60;99.90;;;;;;4970494;28;20404;-55
2023/05/05 05:10:35;;;;;;;12.00;5.63;;;16.70;99.90;;;;;;4968344;28;20407;-55
2023/05/05 05:13:01;;;;;;;9.07;4.50;;;17.30;1.00;;;;;;4973742;28;20397;-57
2023/05/05 05:15:27;;;;;;;13.30;4.80;;;18.10;99.90;;;;;;4973285;28;20424;-58
2023/05/05 05:17:52;;;;;;;9.80;4.40;;;18.90;1.00;;;;;;4972925;28;20395;-56
2023/05/05 05:20:18;;;;;;;11.60;4.00;;;19.30;1.00;;;;;;4973162;28;20491;-56
2023/05/05 05:22:45;;;;;;;9.00;4.50;;;19.50;1.00;;;;;;4972621;28;20855;-56
2023/05/05 05:25:10;;;;;;;9.10;4.20;;;19.90;1.00;;;;;;4972703;28;20539;-56
2023/05/05 05:27:36;;;;;;;12.30;4.47;;;19.80;1.00;;;;;;4972922;28;20486;-56
2023/05/05 05:30:02;;;;;;;8.87;4.17;;;19.50;1.00;;;;;;4972310;28;20920;-56
2023/05/05 05:32:28;;;;;;;12.57;4.70;;;19.40;1.00;;;;;;4973250;28;20392;-56
2023/05/05 05:34:54;;;;;;;10.32;4.10;;;19.30;1.00;;;;;;4971284;28;20400;-56
2023/05/05 05:37:19;;;;;;;10.00;4.37;;;19.60;1.00;;;;;;4972975;28;20385;-56
2023/05/05 05:39:51;;;;;;;9.30;4.10;;;20.80;1.00;;;;;;4971970;28;20870;-56
2023/05/05 05:42:17;;;;;;;7.88;3.78;;;22.50;99.90;;;;;;4970748;28;20446;-57
2023/05/05 05:44:42;;;;;;;9.82;4.32;;;23.10;99.90;;;;;;4969897;28;20401;-56
2023/05/05 05:47:08;;;;;;;10.98;3.85;;;22.90;99.90;;;;;;4972820;28;20894;-56
2023/05/05 05:49:34;;;;;;;8.80;4.18;;;23.30;99.90;;;;;;4973375;28;20479;-56
2023/05/05 05:51:59;;;;;;;9.20;3.80;;;22.80;99.90;;;;;;4972369;28;20403;-56
2023/05/05 05:54:25;;;;;;;8.80;4.20;;;22.20;99.90;;;;;;4972904;28;20416;-56
2023/05/05 05:56:50;;;;;;;8.70;3.90;;;21.50;99.90;;;;;;4972160;28;20404;-56
2023/05/05 05:59:16;;;;;;;8.38;3.65;;;21.20;99.90;;;;;;4972867;28;20392;-56
2023/05/05 06:01:41;;;;;;;8.50;3.97;;;21.00;99.90;;;;;;4972133;28;20488;-56
2023/05/05 06:04:07;;;;;;;8.10;3.03;;;20.90;99.90;;;;;;4968566;28;20501;-56
2023/05/05 06:06:33;;;;;;;9.17;4.03;;;20.80;99.90;;;;;;4961141;28;20414;-56
2023/05/05 06:08:58;;;;;;;11.10;3.70;;;20.50;99.90;;;;;;4958646;28;20398;-56
2023/05/05 06:11:24;;;;;;;10.90;3.77;;;20.40;99.90;;;;;;4971908;28;20487;-56
2023/05/05 06:13:50;;;;;;;10.38;4.20;;;20.30;99.90;;;;;;4970656;28;20400;-56
2023/05/05 06:16:15;;;;;;;11.07;4.20;;;20.00;99.90;;;;;;4972201;28;20388;-56
2023/05/05 06:18:41;;;;;;;8.60;3.40;;;19.90;99.90;;;;;;4971750;28;20515;-56
2023/05/05 06:21:07;;;;;;;10.70;4.03;;;19.70;99.90;;;;;;4972144;28;20504;-57
2023/05/05 06:23:32;;;;;;;8.30;3.87;;;19.80;99.90;;;;;;4961312;28;20408;-57
2023/05/05 06:25:58;;;;;;;9.02;4.03;;;20.00;1.00;;;;;;4971712;28;20391;-57
2023/05/05 06:28:24;;;;;;;12.18;3.72;;;20.10;1.00;;;;;;4972102;28;20416;-56
2023/05/05 06:30:50;;;;;;;9.88;3.75;;;20.30;99.90;;;;;;4971650;28;20403;-56
2023/05/05 06:33:16;;;;;;;11.23;3.50;;;20.60;99.90;;;;;;4972112;28;20396;-56
2023/05/05 06:35:41;;;;;;;7.20;3.40;;;21.00;99.90;;;;;;4971098;28;20920;-56
2023/05/05 06:38:07;;;;;;;8.07;3.70;;;21.60;99.90;;;;;;4970945;28;20486;-56
2023/05/05 06:40:32;;;;;;;9.50;3.40;;;21.80;99.90;;;;;;4971686;28;20889;-56
2023/05/05 06:42:58;;;;;;;7.63;3.27;;;21.90;99.90;;;;;;4971105;28;20384;-56
2023/05/05 06:45:24;;;;;;;10.50;2.70;;;21.80;99.90;;;;;;4972034;28;20857;-56
2023/05/05 06:47:51;;;;;;;11.05;3.38;;;21.70;99.90;;;;;;4971083;28;20384;-56
2023/05/05 06:50:17;;;;;;;10.65;2.90;;;21.50;99.90;;;;;;4971500;28;20750;-56
2023/05/05 06:52:42;;;;;;;11.27;3.20;;;21.30;99.90;;;;;;4970959;28;20404;-56
2023/05/05 06:55:09;;;;;;;8.47;3.07;;;21.30;99.90;;;;;;4971848;28;20539;-56
2023/05/05 06:57:34;;;;;;;8.20;2.75;;;21.20;99.90;;;;;;4971454;28;20400;-56
2023/05/05 07:00:04;;;;;;;10.53;3.70;;;21.10;99.90;;;;;;4970853;28;20770;-56
2023/05/05 07:02:30;;;;;;;8.68;2.95;;;21.10;99.90;;;;;;4971381;28;20389;-57
2023/05/05 07:04:56;;;;;;;8.80;3.20;;;21.20;99.90;;;;;;4970593;28;21167;-57
2023/05/05 07:07:21;;;;;;;7.57;3.07;;;21.30;99.90;;;;;;4971735;28;20420;-56
2023/05/05 07:09:47;;;;;;;7.15;2.92;;;21.20;99.90;;;;;;4970635;28;20472;-56
2023/05/05 07:12:12;;;;;;;8.05;3.10;;;21.20;99.90;;;;;;4970886;28;20476;-57
2023/05/05 07:14:38;;;;;;;9.10;3.80;;;21.10;99.90;;;;;;4970180;28;20491;-56
2023/05/05 07:17:04;;;;;;;7.75;3.20;;;21.00;99.90;;;;;;4966808;28;20997;-56
2023/05/05 07:19:30;;;;;;;8.43;2.83;;;20.80;99.90;;;;;;4971028;28;20385;-56
2023/05/05 07:21:55;;;;;;;12.40;3.60;;;20.90;99.90;;;;;;4969440;28;20892;-56
2023/05/05 07:24:22;;;;;;;8.00;3.38;;;20.90;99.90;;;;;;4970987;28;20404;-56
2023/05/05 07:26:48;;;;;;;8.93;3.30;;;21.10;99.90;;;;;;4970249;28;20440;-56
2023/05/05 07:29:14;;;;;;;10.45;3.80;;;21.40;99.90;;;;;;4971357;28;20463;-56
2023/05/05 07:31:40;;;;;;;8.20;3.50;;;21.50;99.90;;;;;;4970395;28;20404;-56
2023/05/05 07:34:05;;;;;;;7.67;3.17;;;21.50;99.90;;;;;;4970258;28;20397;-56
2023/05/05 07:36:31;;;;;;;8.60;3.25;;;21.50;99.90;;;;;;4970756;28;20430;-56
2023/05/05 07:38:57;;;;;;;11.35;3.35;;;21.40;99.90;;;;;;4969483;28;20956;-56
2023/05/05 07:41:23;;;;;;;10.27;3.40;;;21.30;99.90;;;;;;4970170;28;20897;-56
2023/05/05 07:43:48;;;;;;;7.37;3.30;;;21.30;99.90;;;;;;4970194;28;20419;-56
2023/05/05 07:46:14;;;;;;;9.37;3.40;;;21.30;99.90;;;;;;4970644;28;20750;-56
2023/05/05 07:48:40;;;;;;;7.63;3.17;;;21.10;99.90;;;;;;4970283;28;20380;-56
2023/05/05 07:51:05;;;;;;;10.45;3.45;;;21.20;99.90;;;;;;4970851;28;20397;-56
2023/05/05 07:53:31;;;;;;;8.83;3.50;;;21.30;99.90;;;;;;4970991;28;20392;-56
2023/05/05 07:55:57;;;;;;;8.10;3.00;;;21.10;99.90;;;;;;4970137;28;20427;-56
2023/05/05 07:58:23;;;;;;;14.93;3.70;;;21.00;99.90;;;;;;4970700;28;20408;-56
2023/05/05 08:00:49;;;;;;;7.18;3.10;;;21.00;99.90;;;;;;4969626;28;20476;-56
2023/05/05 08:03:15;;;;;;;7.10;2.75;;;20.80;99.90;;;;;;4970627;28;20396;-56
2023/05/05 08:05:41;;;;;;;7.30;2.72;;;20.80;99.90;;;;;;4969991;28;20395;-56
2023/05/05 08:08:07;;;;;;;8.27;3.28;;;20.90;99.90;;;;;;4970327;28;20826;-56
2023/05/05 08:10:33;;;;;;;7.90;2.42;;;21.00;99.90;;;;;;4970611;28;20403;-57
2023/05/05 08:12:58;;;;;;;7.40;2.80;;;21.20;99.90;;;;;;4969630;28;20622;-56
2023/05/05 08:15:24;;;;;;;7.17;2.40;;;21.20;99.90;;;;;;4970469;28;20487;-56
2023/05/05 08:17:52;;;;;;;9.17;3.40;;;21.10;99.90;;;;;;4969638;28;20599;-57
2023/05/05 08:20:18;;;;;;;10.30;3.00;;;21.00;99.90;;;;;;4970308;28;20388;-56
2023/05/05 08:22:45;;;;;;;9.95;3.65;;;20.90;99.90;;;;;;4969337;28;20400;-56
2023/05/05 08:25:12;;;;;;;9.32;3.00;;;20.90;99.90;;;;;;4970428;28;20389;-56
2023/05/05 08:27:39;;;;;;;8.20;3.20;;;21.00;99.90;;;;;;4970094;28;20396;-56
2023/05/05 08:30:06;;;;;;;8.07;2.97;;;21.10;99.90;;;;;;4969636;28;20412;-57
2023/05/05 08:32:32;;;;;;;10.10;2.78;;;21.10;99.90;;;;;;4970596;28;20399;-57
2023/05/05 08:34:57;;;;;;;15.50;4.20;;;21.10;99.90;;;;;;4969596;28;20385;-57
2023/05/05 08:37:23;;;;;;;7.95;3.33;;;21.10;99.90;;;;;;4970379;28;20399;-57
2023/05/05 08:39:49;;;;;;;9.07;3.72;;;21.00;99.90;;;;;;4969681;28;20884;-57
2023/05/05 08:42:15;;;;;;;13.27;3.30;;;21.00;99.90;;;;;;4969998;28;20519;-57
2023/05/05 08:44:40;;;;;;;11.55;3.40;;;20.90;99.90;;;;;;4970304;28;20471;-56
2023/05/05 08:47:10;;;;;;;9.88;3.20;;;20.80;99.90;;;;;;4973885;28;20950;-57
2023/05/05 08:49:47;;;;;;;8.90;3.20;;;20.70;1.00;;;;;;4974024;28;20412;-57
2023/05/05 08:52:14;;;;;;;9.85;3.20;;;20.70;1.00;;;;;;4973997;28;20396;-56
2023/05/05 08:54:47;;;;;;;7.15;2.90;;;20.80;1.00;;;;;;4973402;28;20391;-57
2023/05/05 08:57:17;;;;;;;8.18;3.55;;;20.80;1.00;;;;;;4973839;28;20427;-57
2023/05/05 08:59:43;;;;;;;8.25;3.08;;;20.90;1.00;;;;;;4973056;28;20415;-57
2023/05/05 09:02:10;;;;;;;9.43;3.50;;;20.90;1.00;;;;;;4973649;28;20414;-57
2023/05/05 09:04:36;;;;;;;9.10;3.22;;;20.80;1.00;;;;;;4973723;28;20479;-57
2023/05/05 09:07:02;;;;;;;9.47;3.70;;;20.70;1.00;;;;;;4956056;28;20475;-56
2023/05/05 09:09:29;;;;;;;7.75;3.25;;;20.70;1.00;;;;;;4973482;28;20396;-57
2023/05/05 09:11:56;;;;;;;8.48;3.65;;;20.50;1.00;;;;;;4973002;28;20392;-56
2023/05/05 09:14:22;;;;;;;9.32;3.65;;;20.40;1.00;;;;;;4973615;28;20459;-56
2023/05/05 09:16:47;;;;;;;7.90;3.30;;;20.50;1.00;;;;;;4972626;28;20388;-57
2023/05/05 09:19:13;;;;;;;7.27;2.80;;;20.70;1.00;;;;;;4973539;28;20479;-56
2023/05/05 09:21:49;;;;;;;7.00;2.80;;;20.90;1.00;;;;;;4973250;28;20825;-56
2023/05/05 09:24:16;;;;;;;8.80;2.90;;;20.90;1.00;;;;;;4973160;28;20404;-56
2023/05/05 09:26:44;;;;;;;7.90;3.00;;;21.30;1.00;;;;;;4972864;28;20403;-57
2023/05/05 09:29:19;;;;;;;10.55;3.35;;;21.60;99.90;;;;;;4973044;28;20423;-56
2023/05/05 09:32:04;;;;;;;9.65;3.40;;;21.60;99.90;;;;;;4972648;28;20424;-56
2023/05/05 09:34:31;;;;;;;9.50;3.20;;;21.80;99.90;;;;;;4973430;28;20388;-57
2023/05/05 09:36:56;;;;;;;8.50;2.83;;;22.00;99.90;;;;;;4972441;28;20388;-56
2023/05/05 09:39:22;;;;;;;7.37;2.63;;;22.20;99.90;;;;;;4973280;28;20411;-57
2023/05/05 09:41:48;;;;;;;8.00;2.50;;;22.40;99.90;;;;;;4972340;28;20416;-56
2023/05/05 09:44:14;;;;;;;7.87;3.00;;;22.50;99.90;;;;;;4973057;28;20459;-56
2023/05/05 09:46:50;;;;;;;6.40;2.40;;;22.50;99.90;;;;;;4972891;28;20422;-56
2023/05/05 09:49:24;;;;;;;6.90;2.40;;;22.70;99.90;;;;;;4973071;28;20427;-57
2023/05/05 09:51:51;;;;;;;8.10;2.97;;;22.60;99.90;;;;;;4971417;28;20455;-56
2023/05/05 09:54:25;;;;;;;7.18;2.70;;;22.50;99.90;;;;;;4972527;28;20385;-56
2023/05/05 09:56:51;;;;;;;8.80;2.65;;;22.70;99.90;;;;;;4971071;28;20404;-57
2023/05/05 09:59:18;;;;;;;7.70;2.47;;;22.80;99.90;;;;;;4972733;28;20410;-57
2023/05/05 10:01:44;;;;;;;6.72;2.50;;;23.10;99.90;;;;;;4971854;28;20434;-56
2023/05/05 10:04:25;;;;;;;7.43;2.37;;;23.00;99.90;;;;;;4972376;28;20483;-56
2023/05/05 10:06:50;;;;;;;6.82;2.30;;;23.30;99.90;;;;;;4964234;28;20425;-57
2023/05/05 10:09:16;;;;;;;6.40;2.40;;;23.20;99.90;;;;;;4970475;28;20917;-56
2023/05/05 10:11:45;;;;;;;6.10;2.40;;;23.30;99.90;;;;;;4972058;28;20905;-57
2023/05/05 10:14:14;;;;;;;7.53;2.60;;;23.30;99.90;;;;;;4972483;28;20419;-56
2023/05/05 10:16:47;;;;;;;7.53;2.22;;;23.10;99.90;;;;;;4971733;28;20404;-56
2023/05/05 10:19:15;;;;;;;7.22;2.40;;;23.00;99.90;;;;;;4972177;28;20425;-57
2023/05/05 10:21:42;;;;;;;7.30;2.47;;;22.80;99.90;;;;;;4972005;28;20408;-56
2023/05/05 10:24:37;;;;;;;7.70;2.30;;;22.60;99.90;;;;;;4972451;28;20905;-56
2023/05/05 10:27:12;;;;;;;6.75;2.50;;;22.40;99.90;;;;;;4971146;28;20474;-57
2023/05/05 10:29:44;;;;;;;7.93;2.60;;;22.20;99.90;;;;;;4958329;28;20417;-56
2023/05/05 10:32:42;;;;;;;9.30;3.10;;;21.90;99.90;;;;;;4951357;29;20414;-57
2023/05/05 10:35:09;;;;;;;6.90;2.47;;;21.90;99.90;;;;;;4925698;29;20432;-57
2023/05/05 10:37:36;;;;;;;7.88;2.95;;;22.00;99.90;;;;;;4952740;29;20398;-57
2023/05/05 10:40:03;;;;;;;10.13;2.97;;;22.10;99.90;;;;;;4950983;28;21109;-57
2023/05/05 10:42:30;;;;;;;8.25;2.63;;;22.20;99.90;;;;;;4952876;29;20430;-58
2023/05/05 10:44:56;;;;;;;9.13;3.55;;;22.10;99.90;;;;;;4951959;29;20954;-57
2023/05/05 10:47:23;;;;;;;7.95;2.95;;;22.00;99.90;;;;;;4951135;28;20419;-57
2023/05/05 10:50:02;;;;;;;9.30;2.95;;;21.90;99.90;;;;;;4932656;28;20413;-56
2023/05/05 10:52:45;;;;;;;6.88;2.80;;;21.70;99.90;;;;;;4946457;28;20520;-56
2023/05/05 10:55:19;;;;;;;8.23;3.00;;;21.60;99.90;;;;;;4939310;29;20952;-57
2023/05/05 10:57:50;;;;;;;8.30;2.70;;;21.60;99.90;;;;;;4947303;29;20420;-57
2023/05/05 11:00:38;;;;;;;7.80;2.70;;;21.60;99.90;;;;;;4943039;29;20941;-56
2023/05/05 11:03:15;;;;;;;8.23;3.33;;;21.60;99.90;;;;;;4940948;28;20415;-57
2023/05/05 11:06:03;;;;;;;7.75;2.80;;;21.60;99.90;;;;;;4948120;29;20778;-56
2023/05/05 11:08:32;;;;;;;8.88;3.00;;;21.60;99.90;;;;;;4952211;28;20469;-57
2023/05/05 11:10:58;;;;;;;7.68;3.20;;;21.70;99.90;;;;;;4941856;29;20884;-56
2023/05/05 11:13:24;;;;;;;8.48;3.20;;;21.70;99.90;;;;;;4943707;28;20741;-56
2023/05/05 11:15:57;;;;;;;8.00;2.78;;;21.90;99.90;;;;;;4942758;29;20409;-56
2023/05/05 11:18:35;;;;;;;7.40;3.08;;;22.10;99.90;;;;;;4948213;28;20752;-56
2023/05/05 11:21:00;;;;;;;7.57;3.00;;;22.10;99.90;;;;;;4948029;28;20421;-56
2023/05/05 11:23:27;;;;;;;6.35;2.63;;;21.90;99.90;;;;;;4952540;29;20414;-56
2023/05/05 11:25:53;;;;;;;8.18;2.80;;;22.20;99.90;;;;;;4951695;29;20426;-57
2023/05/05 11:28:28;;;;;;;6.73;2.60;;;22.60;99.90;;;;;;4954706;28;20522;-57
2023/05/05 11:30:57;;;;;;;7.45;2.80;;;22.90;99.90;;;;;;4953544;28;20833;-57
2023/05/05 11:33:23;;;;;;;7.80;2.60;;;23.00;99.90;;;;;;4971738;28;20392;-57
2023/05/05 11:35:58;;;;;;;7.57;2.40;;;23.00;99.90;;;;;;4970418;28;20478;-57
2023/05/05 11:38:46;;;;;;;6.63;2.17;;;23.20;99.90;;;;;;4971495;28;20393;-56
2023/05/05 11:41:33;;;;;;;6.00;2.03;;;23.40;99.90;;;;;;4971233;28;20574;-57
2023/05/05 11:44:16;;;;;;;8.80;2.00;;;24.00;99.90;;;;;;4970760;28;20385;-57
2023/05/05 11:46:50;;;;;;;7.43;2.10;;;24.30;99.90;;;;;;4971368;28;20903;-57
2023/05/05 11:49:48;;;;;;;6.78;1.80;;;24.40;99.90;;;;;;4971343;28;20396;-57
2023/05/05 11:52:15;;;;;;;7.10;2.22;;;24.60;99.90;;;;;;4938560;28;20546;-57
2023/05/05 11:54:47;;;;;;;6.90;2.20;;;24.50;99.90;;;;;;4971169;28;20406;-57
2023/05/05 11:57:27;;;;;;;6.75;2.00;;;24.80;99.90;;;;;;4971092;28;20404;-57
2023/05/05 11:59:58;;;;;;;5.93;1.75;;;24.70;99.90;;;;;;4970567;28;20458;-57
2023/05/05 12:02:26;;;;;;;5.80;1.90;;;24.70;99.90;;;;;;4971102;28;20557;-57
2023/05/05 12:04:52;;;;;;;5.78;2.00;;;24.80;99.90;;;;;;4970054;28;20475;-57
2023/05/05 12:07:20;;;;;;;7.18;2.10;;;25.40;99.90;;;;;;4970979;28;21253;-57
2023/05/05 12:09:48;;;;;;;6.68;2.70;;;25.70;99.90;;;;;;4970305;28;20435;-57
2023/05/05 12:12:14;;;;;;;7.30;2.13;;;25.50;99.90;;;;;;4970771;28;20392;-57
2023/05/05 12:14:53;;;;;;;6.75;2.00;;;25.70;99.90;;;;;;4971266;28;20408;-57
2023/05/05 12:17:20;;;;;;;6.67;2.57;;;25.40;99.90;;;;;;4969104;28;20873;-57
2023/05/05 12:19:53;;;;;;;9.00;2.33;;;25.30;99.90;;;;;;4968755;28;20393;-57
2023/05/05 12:22:20;;;;;;;5.75;1.95;;;25.30;99.90;;;;;;4962875;28;20420;-57
2023/05/05 12:24:57;;;;;;;7.80;2.00;;;25.60;99.90;;;;;;4969266;28;20389;-57
2023/05/05 12:27:24;;;;;;;5.78;2.00;;;25.80;99.90;;;;;;4970068;28;20420;-57
2023/05/05 12:29:49;;;;;;;5.82;1.80;;;25.60;99.90;;;;;;4967353;28;20511;-57
2023/05/05 12:32:29;;;;;;;7.30;2.10;;;25.50;99.90;;;;;;4969371;28;20908;-57
2023/05/05 12:34:58;;;;;;;5.90;1.98;;;25.70;99.90;;;;;;4967484;28;20905;-57
2023/05/05 12:37:25;;;;;;;6.90;2.20;;;25.60;99.90;;;;;;4970476;28;20395;-57
2023/05/05 12:39:53;;;;;;;5.55;1.92;;;25.50;99.90;;;;;;4967856;28;20941;-57
2023/05/05 12:42:20;;;;;;;7.90;1.90;;;24.80;99.90;;;;;;4966162;28;20416;-57
2023/05/05 12:44:45;;;;;;;6.60;2.20;;;25.00;99.90;;;;;;4964457;28;20455;-57
2023/05/05 12:47:12;;;;;;;6.27;2.30;;;25.10;99.90;;;;;;4970242;28;20416;-57
2023/05/05 12:49:45;;;;;;;7.05;2.20;;;25.30;99.90;;;;;;4970308;28;20384;-58
2023/05/05 12:52:11;;;;;;;6.57;2.20;;;25.50;99.90;;;;;;4968763;28;20889;-59